Time;durP1;ratioP1;P1;durP2;ratioP2;P2;SDS_P1;SDS_P2;PMS_P1;PMS_P2;Temp;Humidity;BMP_temperature;BMP_pressure;BME280_temperature;BME280_humidity;BME280_pressure;Samples;Min_cycle;Max_cycle;Signal;HPM_P1;HPM_P2
2022/12/09 00:02:13;;;;;;;;;59.33;48.67;;;;;4.33;81.83;97920.91;5004104;28;45668;-77
2022/12/09 00:04:39;;;;;;;;;56.33;46.00;;;;;4.32;81.96;97913.97;5006411;28;45494;-77
2022/12/09 00:07:04;;;;;;;;;61.33;47.67;;;;;4.31;81.86;97904.44;5011539;28;45369;-77
2022/12/09 00:09:29;;;;;;;;;61.33;48.67;;;;;4.30;82.11;97905.34;5036216;28;45569;-76
2022/12/09 00:11:55;;;;;;;;;44.33;37.33;;;;;4.29;82.49;97901.88;5006793;28;45489;-76
2022/12/09 00:14:20;;;;;;;;;60.67;46.33;;;;;4.28;82.42;97894.97;5005087;28;45867;-77
2022/12/09 00:16:46;;;;;;;;;60.67;49.00;;;;;4.30;82.81;97895.75;5042848;28;45488;-77
2022/12/09 00:19:11;;;;;;;;;60.67;48.33;;;;;4.31;82.93;97896.63;5014021;28;45492;-76
2022/12/09 00:21:37;;;;;;;;;55.67;43.67;;;;;4.32;82.66;97893.09;5002960;28;45561;-77
2022/12/09 00:24:04;;;;;;;;;59.33;45.33;;;;;4.30;82.61;97887.94;5002647;28;45569;-76
2022/12/09 00:26:31;;;;;;;;;60.33;47.67;;;;;4.29;83.08;97870.56;5023679;28;45449;-77
2022/12/09 00:28:57;;;;;;;;;57.67;46.33;;;;;4.28;83.37;97854.97;5002088;28;47794;-77
2022/12/09 00:31:31;;;;;;;;;61.33;44.00;;;;;4.27;83.37;97855.88;5006728;28;45467;-77
2022/12/09 00:33:58;;;;;;;;;57.00;45.00;;;;;4.27;83.29;97848.91;5006538;28;45503;-77
2022/12/09 00:36:24;;;;;;;;;60.67;45.67;;;;;4.26;83.61;97839.38;5007242;28;45554;-77
2022/12/09 00:38:51;;;;;;;;;60.00;44.33;;;;;4.26;83.53;97823.72;5001545;28;45495;-77
2022/12/09 00:41:17;;;;;;;;;58.67;46.67;;;;;4.26;83.86;97812.44;5042154;28;45413;-77
2022/12/09 00:43:42;;;;;;;;;59.33;48.67;;;;;4.24;84.10;97817.72;5002168;28;45312;-77
2022/12/09 00:46:09;;;;;;;;;66.67;49.00;;;;;4.22;84.16;97815.16;4999024;28;45456;-77
2022/12/09 00:48:37;;;;;;;;;61.33;48.33;;;;;4.22;84.49;97824.72;4998783;28;45636;-77
2022/12/09 00:51:03;;;;;;;;;61.33;49.00;;;;;4.25;84.72;97819.41;5002539;28;45426;-76
2022/12/09 00:53:29;;;;;;;;;62.33;49.33;;;;;4.25;84.61;97806.38;5006913;28;45655;-77
2022/12/09 00:55:55;;;;;;;;;56.00;46.67;;;;;4.26;84.37;97802.84;5004680;28;45449;-77
2022/12/09 00:58:20;;;;;;;;;57.00;46.33;;;;;4.26;84.51;97804.63;5010317;28;45634;-77
2022/12/09 01:00:46;;;;;;;;;60.33;45.67;;;;;4.23;84.67;97805.56;5010536;28;45465;-77
2022/12/09 01:03:16;;;;;;;;;56.67;44.00;;;;;4.24;85.08;97802.06;5005809;28;45854;-77
2022/12/09 01:05:42;;;;;;;;;58.33;47.33;;;;;4.23;85.05;97792.53;5008875;28;45500;-77
2022/12/09 01:08:09;;;;;;;;;61.33;48.00;;;;;4.23;85.18;97782.09;5009120;28;45615;-77
2022/12/09 01:10:35;;;;;;;;;61.00;45.00;;;;;4.23;85.07;97774.28;4999967;28;45444;-77
2022/12/09 01:13:01;;;;;;;;;59.67;44.33;;;;;4.25;85.53;97789.88;5012602;28;45552;-77
2022/12/09 01:15:26;;;;;;;;;60.00;47.00;;;;;4.25;85.28;97788.13;5013117;28;45461;-77
2022/12/09 01:17:52;;;;;;;;;60.33;49.33;;;;;4.27;85.26;97790.66;5000165;28;46249;-77
2022/12/09 01:20:17;;;;;;;;;61.33;50.00;;;;;4.28;85.37;97792.38;5000510;28;45704;-77
2022/12/09 01:22:42;;;;;;;;;60.67;47.67;;;;;4.29;85.26;97781.88;5013827;28;45490;-77
2022/12/09 01:25:10;;;;;;;;;62.33;47.67;;;;;4.32;85.65;97773.94;5000896;28;45486;-77
2022/12/09 01:27:35;;;;;;;;;62.00;49.00;;;;;4.34;85.28;97771.28;5000890;28;46632;-77
2022/12/09 01:30:01;;;;;;;;;59.00;44.00;;;;;4.35;85.59;97780.81;5003075;28;45597;-77
2022/12/09 01:32:26;;;;;;;;;65.67;50.33;;;;;4.36;85.43;97779.88;5015481;28;45490;-76
2022/12/09 01:34:52;;;;;;;;;63.33;45.33;;;;;4.36;85.49;97770.31;5006060;28;45486;-77
2022/12/09 01:37:17;;;;;;;;;64.00;47.00;;;;;4.38;85.22;97757.19;5005492;28;46520;-77
2022/12/09 01:39:43;;;;;;;;;54.67;44.00;;;;;4.38;85.49;97751.97;5003339;28;45564;-77
2022/12/09 01:42:20;;;;;;;;;60.67;47.00;;;;;4.37;85.87;97724.19;5009073;28;45864;-77
2022/12/09 01:45:19;;;;;;;;;54.00;44.67;;;;;4.37;86.13;97714.59;5003432;28;45474;-76
2022/12/09 01:47:53;;;;;;;;;61.00;47.33;;;;;4.34;85.97;97712.13;5027501;28;47578;-77
2022/12/09 01:50:19;;;;;;;;;62.00;50.67;;;;;4.33;86.35;97709.59;5002850;28;45386;-77
2022/12/09 01:52:46;;;;;;;;;64.00;49.00;;;;;4.33;86.53;97728.69;5032068;28;45397;-76
2022/12/09 01:55:12;;;;;;;;;48.67;40.00;;;;;4.32;86.13;97728.75;4999480;28;45608;-77
2022/12/09 01:57:38;;;;;;;;;63.67;47.33;;;;;4.31;86.30;97712.25;5009070;28;45630;-77
2022/12/09 02:00:05;;;;;;;;;58.33;44.33;;;;;4.30;86.64;97715.75;5031921;28;45440;-77
2022/12/09 02:02:31;;;;;;;;;51.67;43.67;;;;;4.30;86.50;97705.34;5005563;28;45408;-77
2022/12/09 02:04:57;;;;;;;;;57.33;47.33;;;;;4.30;86.82;97720.13;5032063;28;45500;-77
2022/12/09 02:07:23;;;;;;;;;62.00;48.00;;;;;4.29;87.11;97708.00;5006288;28;45453;-76
2022/12/09 02:09:51;;;;;;;;;47.00;36.67;;;;;4.29;87.14;97697.56;5009388;28;45347;-77
2022/12/09 02:12:41;;;;;;;;;54.33;42.67;;;;;4.30;87.31;97704.47;5006841;28;45419;-76
2022/12/09 02:15:16;;;;;;;;;57.00;44.67;;;;;4.31;87.13;97719.22;5006204;28;45325;-77
2022/12/09 02:18:15;;;;;;;;;56.67;45.33;;;;;4.31;87.17;97717.47;5006018;28;45543;-76
2022/12/09 02:21:08;;;;;;;;;55.33;44.00;;;;;4.31;87.39;97704.44;4986221;28;45721;-77
2022/12/09 02:23:59;;;;;;;;;52.67;44.00;;;;;4.32;87.49;97687.88;5000889;28;45303;-77
2022/12/09 02:26:39;;;;;;;;;60.67;45.00;;;;;4.33;87.80;97696.53;4998013;28;45404;-77
2022/12/09 02:29:28;;;;;;;;;61.33;45.67;;;;;4.36;87.96;97693.78;5030852;28;47076;-76
2022/12/09 02:32:06;;;;;;;;;57.33;44.67;;;;;4.36;87.82;97678.13;5005234;28;45579;-76
2022/12/09 02:34:35;;;;;;;;;62.00;46.33;;;;;4.36;87.96;97672.91;5003971;28;45403;-77
2022/12/09 02:37:16;;;;;;;;;49.00;41.00;;;;;4.38;88.17;97677.19;4996828;28;45326;-76
2022/12/09 02:39:51;;;;;;;;;52.67;41.33;;;;;4.40;87.97;97671.91;5007717;28;45919;-77
2022/12/09 02:42:20;;;;;;;;;56.00;42.67;;;;;4.42;88.09;97660.50;5009289;28;45627;-77
2022/12/09 02:44:48;;;;;;;;;56.33;41.00;;;;;4.44;87.73;97661.28;5046139;28;45588;-77
2022/12/09 02:47:18;;;;;;;;;48.67;43.33;;;;;4.44;87.91;97656.06;5008105;28;45480;-77
2022/12/09 02:49:49;;;;;;;;;52.33;44.33;;;;;4.46;87.48;97656.88;4995661;28;45449;-77
2022/12/09 02:52:16;;;;;;;;;55.33;43.33;;;;;4.45;87.67;97651.72;5036318;28;45531;-77
2022/12/09 02:54:42;;;;;;;;;60.00;44.33;;;;;4.45;88.00;97657.78;5011248;28;45406;-76
2022/12/09 02:57:15;;;;;;;;;51.00;42.33;;;;;4.45;87.77;97633.44;5007859;28;45516;-76
2022/12/09 02:59:41;;;;;;;;;60.00;47.33;;;;;4.44;87.43;97626.53;5013605;28;45406;-77
2022/12/09 03:02:28;;;;;;;;;54.33;43.33;;;;;4.44;87.89;97648.25;5005381;28;45480;-77
2022/12/09 03:05:12;;;;;;;;;57.67;45.00;;;;;4.44;87.64;97645.66;5005114;28;45400;-76
2022/12/09 03:08:01;;;;;;;;;53.33;42.67;;;;;4.47;87.71;97647.28;5005416;28;45607;-77
2022/12/09 03:10:35;;;;;;;;;57.67;43.00;;;;;4.47;87.86;97636.84;4994519;28;46589;-77
2022/12/09 03:13:11;;;;;;;;;59.00;43.00;;;;;4.49;88.29;97627.19;5031911;28;45445;-77
2022/12/09 03:15:41;;;;;;;;;52.33;43.33;;;;;4.53;87.87;97634.81;5030152;28;45342;-77
2022/12/09 03:18:13;;;;;;;;;53.33;43.00;;;;;4.54;87.69;97633.91;5006807;28;45403;-77
2022/12/09 03:20:42;;;;;;;;;50.33;39.33;;;;;4.56;87.99;97629.50;5002350;28;46598;-77
2022/12/09 03:23:13;;;;;;;;;53.00;43.33;;;;;4.57;88.27;97623.38;4997322;28;45345;-77
2022/12/09 03:25:43;;;;;;;;;52.33;42.67;;;;;4.61;88.09;97629.31;5000049;28;45440;-76
2022/12/09 03:28:16;;;;;;;;;60.00;44.00;;;;;4.65;88.15;97627.44;4998924;28;45472;-77
2022/12/09 03:30:44;;;;;;;;;53.33;44.67;;;;;4.65;87.91;97610.03;5012869;28;46271;-76
2022/12/09 03:33:13;;;;;;;;;56.33;45.00;;;;;4.65;88.27;97604.81;5021287;28;45740;-76
2022/12/09 03:35:48;;;;;;;;;58.33;46.00;;;;;4.65;88.26;97628.28;4997218;28;45471;-76
2022/12/09 03:38:18;;;;;;;;;53.33;44.00;;;;;4.68;88.58;97648.19;5013226;28;45517;-76
2022/12/09 03:40:49;;;;;;;;;56.67;42.67;;;;;4.71;88.20;97646.28;5000766;28;45471;-77
2022/12/09 03:43:25;;;;;;;;;55.33;43.67;;;;;4.73;87.75;97633.19;5007825;28;45461;-76
2022/12/09 03:45:53;;;;;;;;;51.67;41.67;;;;;4.74;87.82;97630.50;5016670;28;45486;-76
2022/12/09 03:48:20;;;;;;;;;60.00;45.00;;;;;4.76;88.25;97631.31;4996971;28;45434;-77
2022/12/09 03:51:09;;;;;;;;;56.00;41.33;;;;;4.79;87.84;97636.41;4997351;28;45436;-77
2022/12/09 03:53:50;;;;;;;;;55.33;43.00;;;;;4.80;88.00;97621.59;5037697;28;45360;-77
2022/12/09 03:56:27;;;;;;;;;51.67;44.00;;;;;4.80;88.10;97611.16;5002714;28;45579;-77
2022/12/09 03:58:56;;;;;;;;;59.00;43.33;;;;;4.79;88.09;97602.47;5002800;28;45488;-77
2022/12/09 04:01:23;;;;;;;;;52.33;42.00;;;;;4.81;88.06;97605.00;5007078;28;45476;-76
2022/12/09 04:03:52;;;;;;;;;59.00;47.00;;;;;4.81;88.25;97597.19;5005324;28;45481;-76
2022/12/09 04:06:17;;;;;;;;;55.67;42.33;;;;;4.78;88.37;97571.19;5009851;28;45446;-77
2022/12/09 04:08:43;;;;;;;;;54.33;38.33;;;;;4.77;88.31;97575.56;5006213;28;45580;-77
2022/12/09 04:11:09;;;;;;;;;56.00;43.33;;;;;4.78;88.20;97605.13;5011546;28;45840;-76
2022/12/09 04:13:34;;;;;;;;;50.67;40.00;;;;;4.79;88.57;97614.66;5004811;28;45488;-77
2022/12/09 04:16:00;;;;;;;;;54.00;42.33;;;;;4.79;88.46;97607.69;5013319;28;45450;-76
2022/12/09 04:18:25;;;;;;;;;55.33;43.00;;;;;4.78;88.59;97585.09;5010344;28;45469;-76
2022/12/09 04:20:51;;;;;;;;;49.33;40.67;;;;;4.78;88.63;97574.66;5014883;28;46607;-76
2022/12/09 04:23:16;;;;;;;;;55.00;42.67;;;;;4.78;88.91;97568.59;5011073;28;45408;-77
2022/12/09 04:25:41;;;;;;;;;60.00;42.33;;;;;4.77;88.82;97559.06;5005996;28;45854;-76
2022/12/09 04:28:07;;;;;;;;;55.00;41.67;;;;;4.76;88.60;97562.56;5007267;28;45470;-77
2022/12/09 04:30:32;;;;;;;;;51.67;39.33;;;;;4.73;88.49;97565.31;5002300;28;45569;-76
2022/12/09 04:32:59;;;;;;;;;60.33;44.67;;;;;4.71;88.66;97569.75;4999884;28;45326;-77
2022/12/09 04:35:24;;;;;;;;;51.67;40.33;;;;;4.67;89.12;97576.88;5005462;28;45396;-77
2022/12/09 04:37:50;;;;;;;;;51.67;42.67;;;;;4.65;88.98;97568.25;5007518;28;45405;-76
2022/12/09 04:40:16;;;;;;;;;45.33;39.00;;;;;4.64;89.21;97565.72;5009937;28;45581;-77
2022/12/09 04:42:41;;;;;;;;;55.67;43.00;;;;;4.61;89.11;97561.47;5005022;28;45406;-77
2022/12/09 04:45:07;;;;;;;;;55.67;42.00;;;;;4.60;89.34;97561.53;5012542;28;45972;-76
2022/12/09 04:47:33;;;;;;;;;50.00;40.00;;;;;4.58;89.39;97582.47;5004915;28;45756;-77
2022/12/09 04:49:58;;;;;;;;;59.67;43.67;;;;;4.56;89.70;97582.50;5013645;28;45466;-77
2022/12/09 04:52:23;;;;;;;;;56.00;42.00;;;;;4.59;89.82;97580.69;5013732;28;45472;-76
2022/12/09 04:54:49;;;;;;;;;49.67;41.33;;;;;4.59;89.93;97576.31;5009116;28;45399;-77
2022/12/09 04:57:15;;;;;;;;;53.67;44.00;;;;;4.59;90.45;97565.88;4999557;28;45573;-77
2022/12/09 04:59:40;;;;;;;;;41.67;36.00;;;;;4.61;89.49;97571.91;4998022;28;45465;-77
2022/12/09 05:02:06;;;;;;;;;43.33;38.33;;;;;4.62;89.63;97580.56;4998297;28;45429;-77
2022/12/09 05:04:31;;;;;;;;;56.00;44.00;;;;;4.60;89.55;97590.22;5002851;28;45381;-76
2022/12/09 05:06:56;;;;;;;;;49.67;36.67;;;;;4.61;89.70;97595.38;5032236;28;45833;-77
2022/12/09 05:09:22;;;;;;;;;57.67;44.33;;;;;4.62;89.60;97586.66;5005760;28;45478;-76
2022/12/09 05:11:47;;;;;;;;;49.00;37.33;;;;;4.64;89.79;97576.16;5001884;28;45574;-76
2022/12/09 05:14:13;;;;;;;;;60.00;45.67;;;;;4.64;89.89;97577.00;5007043;28;45372;-76
2022/12/09 05:16:38;;;;;;;;;53.00;43.67;;;;;4.66;89.91;97587.38;5008375;28;45496;-76
2022/12/09 05:19:04;;;;;;;;;47.33;39.00;;;;;4.67;89.85;97584.72;5009512;28;45906;-77
2022/12/09 05:21:29;;;;;;;;;54.67;44.33;;;;;4.70;90.17;97589.78;5009541;28;45644;-76
2022/12/09 05:23:55;;;;;;;;;53.67;43.67;;;;;4.74;90.03;97601.78;5004803;28;45579;-77
2022/12/09 05:26:21;;;;;;;;;56.33;40.67;;;;;4.77;90.15;97609.50;5013493;28;45418;-76
2022/12/09 05:28:48;;;;;;;;;47.33;40.67;;;;;4.79;90.29;97602.47;5025286;28;45474;-77
2022/12/09 05:31:16;;;;;;;;;55.00;43.00;;;;;4.84;90.33;97607.50;5002729;28;45412;-76
2022/12/09 05:33:43;;;;;;;;;55.00;44.67;;;;;4.84;90.10;97603.13;5005893;28;45491;-77
2022/12/09 05:36:13;;;;;;;;;46.00;38.33;;;;;4.85;90.33;97599.63;5003044;28;45454;-76
2022/12/09 05:38:39;;;;;;;;;48.33;39.33;;;;;4.86;90.42;97609.13;5004263;28;45437;-76
2022/12/09 05:41:05;;;;;;;;;47.33;42.67;;;;;4.90;90.54;97602.00;5002700;28;45465;-77
2022/12/09 05:43:31;;;;;;;;;41.67;37.00;;;;;4.90;90.49;97608.09;5004304;28;45498;-77
2022/12/09 05:45:57;;;;;;;;;49.33;40.67;;;;;4.93;90.51;97599.28;5006572;28;45428;-77
2022/12/09 05:48:23;;;;;;;;;52.33;40.67;;;;;4.94;90.64;97595.75;5008577;28;47062;-76
2022/12/09 05:50:59;;;;;;;;;56.33;43.00;;;;;4.95;90.62;97607.03;5010204;28;45350;-77
2022/12/09 05:53:25;;;;;;;;;58.33;44.00;;;;;4.94;90.70;97600.97;5035819;28;45544;-76
2022/12/09 05:55:50;;;;;;;;;42.33;36.67;;;;;4.94;90.63;97610.56;5013598;28;45236;-77
2022/12/09 05:58:16;;;;;;;;;45.67;38.67;;;;;4.94;90.53;97611.41;5005297;28;48323;-77
2022/12/09 06:00:41;;;;;;;;;32.67;29.33;;;;;4.94;91.01;97608.81;4996355;28;45325;-77
2022/12/09 06:03:06;;;;;;;;;54.67;41.67;;;;;4.95;91.08;97614.88;5004479;28;45444;-77
2022/12/09 06:05:32;;;;;;;;;45.00;36.33;;;;;4.94;91.15;97624.47;5029563;28;45626;-77
2022/12/09 06:07:57;;;;;;;;;44.67;38.67;;;;;4.92;90.76;97621.06;5002031;28;46253;-76
2022/12/09 06:10:23;;;;;;;;;36.00;33.33;;;;;4.94;91.12;97613.19;5008826;28;45526;-77
2022/12/09 06:12:48;;;;;;;;;52.00;37.33;;;;;4.91;90.96;97604.56;5007391;28;45401;-78
2022/12/09 06:15:14;;;;;;;;;52.67;36.67;;;;;4.91;91.13;97604.56;5002799;28;45628;-77
2022/12/09 06:17:39;;;;;;;;;44.00;33.67;;;;;4.91;91.09;97603.72;5039269;28;46787;-77
2022/12/09 06:20:06;;;;;;;;;48.00;39.33;;;;;4.88;91.36;97589.00;5004187;28;45493;-77
2022/12/09 06:22:33;;;;;;;;;37.67;36.00;;;;;4.88;91.43;97588.16;5003314;28;45441;-77
2022/12/09 06:24:58;;;;;;;;;51.00;41.33;;;;;4.86;91.16;97603.88;5007906;28;45540;-77
2022/12/09 06:27:24;;;;;;;;;34.33;32.00;;;;;4.85;91.33;97604.84;5006088;28;46406;-77
2022/12/09 06:29:49;;;;;;;;;49.33;41.33;;;;;4.85;91.43;97602.22;5006683;28;45484;-77
2022/12/09 06:32:14;;;;;;;;;39.67;31.67;;;;;4.84;91.71;97605.75;4995049;28;45534;-77
2022/12/09 06:34:40;;;;;;;;;41.67;37.67;;;;;4.85;91.65;97598.75;4995581;28;45509;-77
2022/12/09 06:37:05;;;;;;;;;44.67;36.33;;;;;4.84;91.61;97595.31;5005513;28;46186;-76
2022/12/09 06:39:31;;;;;;;;;48.67;39.67;;;;;4.86;91.90;97600.44;5006364;28;45412;-76
2022/12/09 06:41:56;;;;;;;;;44.33;39.33;;;;;4.86;91.94;97608.25;5005304;28;45282;-77
2022/12/09 06:44:21;;;;;;;;;47.33;40.00;;;;;4.88;91.86;97606.44;5034060;28;45369;-77
2022/12/09 06:46:47;;;;;;;;;50.33;39.67;;;;;4.89;92.29;97603.78;4997360;28;46420;-77
2022/12/09 06:49:12;;;;;;;;;45.00;39.00;;;;;4.91;92.09;97598.47;5004474;28;45555;-77
2022/12/09 06:51:38;;;;;;;;;50.33;42.00;;;;;4.91;91.76;97598.47;5004264;28;45496;-76
2022/12/09 06:54:03;;;;;;;;;49.00;40.67;;;;;4.89;92.14;97600.31;5006993;28;45606;-77
2022/12/09 06:56:31;;;;;;;;;51.67;38.67;;;;;4.88;92.28;97586.41;5011607;28;46104;-76
2022/12/09 06:58:56;;;;;;;;;45.00;38.00;;;;;4.90;92.42;97594.19;5003602;28;45413;-78
2022/12/09 07:01:24;;;;;;;;;55.33;40.67;;;;;4.91;92.72;97588.03;5003962;28;45461;-76
2022/12/09 07:03:54;;;;;;;;;50.33;39.67;;;;;4.92;92.47;97589.75;4999728;28;45315;-76
2022/12/09 07:06:27;;;;;;;;;44.67;38.67;;;;;4.92;92.59;97587.13;5003786;28;45994;-75
2022/12/09 07:08:54;;;;;;;;;55.00;41.67;;;;;4.91;92.62;97582.81;5009395;28;45451;-78
2022/12/09 07:11:19;;;;;;;;;45.67;38.33;;;;;4.92;92.55;97592.34;5015549;28;45536;-76
2022/12/09 07:13:44;;;;;;;;;52.00;41.67;;;;;4.92;92.81;97600.19;5005473;28;45342;-76
2022/12/09 07:16:10;;;;;;;;;44.67;36.33;;;;;4.91;92.82;97594.13;5003699;28;46171;-76
2022/12/09 07:18:35;;;;;;;;;40.33;38.33;;;;;4.93;92.76;97590.59;5011495;28;45464;-76
2022/12/09 07:21:09;;;;;;;;;41.33;38.33;;;;;4.94;92.78;97587.06;5015378;28;45662;-76
2022/12/09 07:23:35;;;;;;;;;43.33;37.33;;;;;4.93;92.63;97590.59;5009763;28;45521;-78
2022/12/09 07:26:01;;;;;;;;;38.33;33.67;;;;;4.92;92.60;97589.75;5010475;28;45489;-77
2022/12/09 07:28:27;;;;;;;;;50.67;40.00;;;;;4.92;92.82;97602.78;5003672;28;45357;-77
2022/12/09 07:30:53;;;;;;;;;41.00;36.67;;;;;4.93;92.99;97590.59;5014659;28;45427;-76
2022/12/09 07:33:18;;;;;;;;;47.33;39.33;;;;;4.94;92.85;97581.84;5037088;28;45580;-76
2022/12/09 07:35:44;;;;;;;;;42.67;37.67;;;;;4.94;92.85;97594.91;5011879;28;45387;-76
2022/12/09 07:38:09;;;;;;;;;45.67;40.67;;;;;4.95;93.13;97589.63;5008717;28;45419;-76
2022/12/09 07:40:35;;;;;;;;;50.67;40.00;;;;;4.96;93.29;97599.16;5012162;28;45572;-76
2022/12/09 07:43:00;;;;;;;;;43.33;39.00;;;;;4.96;93.44;97587.84;5003475;28;45394;-76
2022/12/09 07:45:25;;;;;;;;;43.00;35.33;;;;;4.99;93.48;97580.75;5015199;28;45384;-76
2022/12/09 07:47:51;;;;;;;;;40.33;36.00;;;;;5.02;93.34;97583.25;5006621;28;45506;-78
2022/12/09 07:50:16;;;;;;;;;45.00;36.00;;;;;5.04;93.51;97585.75;5006561;28;45663;-76
2022/12/09 07:52:42;;;;;;;;;33.67;29.00;;;;;5.05;93.64;97593.53;4997731;28;45493;-78
2022/12/09 07:55:08;;;;;;;;;38.67;30.00;;;;;5.07;93.34;97596.06;4998402;28;46054;-77
2022/12/09 07:57:34;;;;;;;;;40.67;35.00;;;;;5.10;93.25;97598.56;5000260;28;45485;-78
2022/12/09 07:59:59;;;;;;;;;32.00;28.33;;;;;5.10;93.50;97598.56;5001071;28;45509;-78
2022/12/09 08:02:24;;;;;;;;;33.33;31.00;;;;;5.11;93.24;97592.44;5002498;28;45521;-78
2022/12/09 08:04:50;;;;;;;;;43.33;32.67;;;;;5.13;93.33;97595.81;5012808;28;45682;-78
2022/12/09 08:07:15;;;;;;;;;39.33;30.67;;;;;5.13;93.12;97596.69;5006239;28;45440;-77
2022/12/09 08:09:41;;;;;;;;;28.00;26.67;;;;;5.13;93.16;97594.06;5030640;28;45490;-77
2022/12/09 08:12:06;;;;;;;;;35.67;30.67;;;;;5.15;92.91;97594.84;5012725;28;45425;-78
2022/12/09 08:14:32;;;;;;;;;37.00;36.33;;;;;5.17;92.94;97594.78;5012657;28;45683;-77
2022/12/09 08:16:57;;;;;;;;;32.67;29.67;;;;;5.16;93.00;97607.00;5011442;28;45480;-77
2022/12/09 08:19:22;;;;;;;;;38.00;31.00;;;;;5.18;92.88;97614.78;5014445;28;45550;-78
2022/12/09 08:21:48;;;;;;;;;33.33;26.00;;;;;5.19;92.98;97603.41;5013903;28;45603;-77
2022/12/09 08:24:13;;;;;;;;;27.00;25.00;;;;;5.20;93.05;97602.47;5000201;28;46084;-77
2022/12/09 08:26:39;;;;;;;;;28.67;27.00;;;;;5.20;92.74;97595.47;5013578;28;45362;-78
2022/12/09 08:29:12;;;;;;;;;28.33;24.67;;;;;5.21;92.70;97599.78;4997732;28;45363;-77
2022/12/09 08:31:41;;;;;;;;;30.00;29.00;;;;;5.23;93.09;97599.72;5001870;28;45357;-77
2022/12/09 08:34:06;;;;;;;;;30.33;24.33;;;;;5.26;92.78;97610.06;5012724;28;45451;-77
2022/12/09 08:36:32;;;;;;;;;29.00;24.67;;;;;5.27;92.79;97598.69;5011048;28;45443;-77
2022/12/09 08:38:59;;;;;;;;;26.33;26.33;;;;;5.27;92.56;97603.91;5010995;28;45531;-77
2022/12/09 08:41:34;;;;;;;;;24.00;24.00;;;;;5.25;92.52;97609.19;5011879;28;45472;-76
2022/12/09 08:44:05;;;;;;;;;22.33;19.00;;;;;5.25;92.66;97617.03;5006545;28;46617;-76
2022/12/09 08:46:31;;;;;;;;;20.67;18.33;;;;;5.28;92.78;97613.44;5010213;28;45410;-83
2022/12/09 08:48:57;;;;;;;;;33.67;27.67;;;;;5.31;92.85;97617.69;5006453;28;45618;-77
2022/12/09 08:51:22;;;;;;;;;24.00;19.33;;;;;5.33;92.62;97615.88;5013406;28;45355;-77
2022/12/09 08:53:48;;;;;;;;;19.00;19.00;;;;;5.34;92.69;97615.81;4996859;28;45757;-77
2022/12/09 08:56:15;;;;;;;;;23.67;19.67;;;;;5.38;93.16;97621.72;5002555;28;45454;-77
2022/12/09 08:58:41;;;;;;;;;22.67;20.67;;;;;5.40;92.71;97622.50;5004271;28;45508;-77
2022/12/09 09:01:13;;;;;;;;;20.00;15.67;;;;;5.41;92.93;97625.06;5012973;28;45649;-77
2022/12/09 09:03:38;;;;;;;;;21.67;19.00;;;;;5.44;92.79;97626.69;5001951;28;45575;-77
2022/12/09 09:06:06;;;;;;;;;17.67;17.00;;;;;5.45;92.76;97615.34;5008684;28;45433;-77
2022/12/09 09:08:32;;;;;;;;;21.33;19.00;;;;;5.48;92.56;97615.19;5002716;28;45427;-77
2022/12/09 09:10:58;;;;;;;;;15.00;14.67;;;;;5.49;92.94;97617.75;5010669;28;45400;-77
2022/12/09 09:13:24;;;;;;;;;29.00;22.00;;;;;5.53;92.51;97621.09;5005604;28;47117;-77
2022/12/09 09:15:49;;;;;;;;;15.00;14.67;;;;;5.57;92.84;97625.25;4999365;28;45460;-78
2022/12/09 09:18:14;;;;;;;;;21.33;16.33;;;;;5.59;92.00;97618.19;4998918;28;45331;-81
2022/12/09 09:20:47;;;;;;;;;20.33;18.67;;;;;5.59;91.91;97618.19;5004349;28;45332;-80
2022/12/09 09:23:14;;;;;;;;;25.00;20.33;;;;;5.59;92.17;97633.88;5018337;28;46386;-78
2022/12/09 09:25:41;;;;;;;;;25.67;20.67;;;;;5.61;92.07;97632.03;5000910;28;45403;-78
2022/12/09 09:28:06;;;;;;;;;21.67;17.67;;;;;5.62;92.30;97636.34;5002940;28;45523;-78
2022/12/09 09:30:33;;;;;;;;;22.33;19.33;;;;;5.64;92.20;97628.44;4998612;28;45603;-78
2022/12/09 09:32:58;;;;;;;;;19.00;18.67;;;;;5.67;91.98;97629.16;4996982;28;45693;-79
2022/12/09 09:35:24;;;;;;;;;18.00;16.33;;;;;5.69;91.72;97637.78;5006526;28;45541;-79
2022/12/09 09:37:50;;;;;;;;;19.67;19.00;;;;;5.71;92.01;97632.47;5037418;28;45404;-78
2022/12/09 09:40:16;;;;;;;;;20.00;15.00;;;;;5.74;91.92;97633.19;5039006;28;45429;-78
2022/12/09 09:42:47;;;;;;;;;17.33;15.00;;;;;5.79;91.83;97631.22;5001614;28;45573;-78
2022/12/09 09:45:18;;;;;;;;;14.67;14.67;;;;;5.84;91.84;97625.78;5001310;28;45703;-79
2022/12/09 09:48:03;;;;;;;;;17.00;14.33;;;;;5.92;91.53;97626.31;5021074;28;45362;-78
2022/12/09 09:50:36;;;;;;;;;22.33;19.33;;;;;5.94;91.44;97622.72;5004631;28;45439;-79
2022/12/09 09:53:14;;;;;;;;;16.33;14.33;;;;;6.00;91.28;97631.22;5007047;28;46685;-78
2022/12/09 09:56:01;;;;;;;;;18.33;16.33;;;;;6.02;91.19;97638.06;5012802;28;45357;-79
2022/12/09 09:58:30;;;;;;;;;18.33;17.33;;;;;6.02;91.17;97634.59;4998547;28;45410;-79
2022/12/09 10:01:02;;;;;;;;;17.33;17.33;;;;;6.04;91.29;97643.22;5029652;28;45610;-79
2022/12/09 10:03:56;;;;;;;;;25.67;17.33;;;;;6.05;91.01;97640.53;4998415;28;46454;-78
2022/12/09 10:06:35;;;;;;;;;18.00;16.33;;;;;6.04;90.77;97635.34;5007494;28;45436;-78
2022/12/09 10:09:12;;;;;;;;;18.00;16.67;;;;;6.03;90.89;97637.16;4994966;28;45438;-78
2022/12/09 10:11:46;;;;;;;;;25.33;19.00;;;;;6.05;91.21;97629.22;5004498;28;45426;-78
2022/12/09 10:14:43;;;;;;;;;15.67;14.33;;;;;6.06;90.98;97636.13;5012354;28;45664;-77
2022/12/09 10:17:33;;;;;;;;;18.33;15.67;;;;;6.08;90.92;97632.53;5038396;28;45411;-78
2022/12/09 10:20:15;;;;;;;;;15.00;15.00;;;;;6.11;90.89;97627.19;5003234;28;45551;-78
2022/12/09 10:22:45;;;;;;;;;17.67;17.33;;;;;6.12;90.72;97636.72;5000982;28;45402;-78
2022/12/09 10:25:25;;;;;;;;;22.00;19.67;;;;;6.15;91.07;97631.34;5021567;28;47379;-78
2022/12/09 10:28:35;;;;;;;;;16.33;13.00;;;;;6.17;90.83;97639.97;5010358;28;45653;-79
2022/12/09 10:31:01;;;;;;;;;17.33;13.67;;;;;6.18;91.09;97627.75;5009364;28;45483;-78
2022/12/09 10:33:33;;;;;;;;;16.67;15.33;;;;;6.21;90.67;97640.66;5004584;28;45460;-78
2022/12/09 10:35:59;;;;;;;;;16.33;14.33;;;;;6.18;90.78;97639.06;4997983;28;48135;-79
2022/12/09 10:38:28;;;;;;;;;20.67;18.00;;;;;6.19;90.75;97640.75;5001455;28;45503;-79
2022/12/09 10:43:33;;;;;;;;;20.33;18.67;;;;;6.22;91.22;97637.13;5008837;28;45389;-80
2022/12/09 10:44:20;;;;;;;;;17.67;15.00;;;;;6.25;90.68;97635.22;5003005;28;45551;-80
2022/12/09 10:46:46;;;;;;;;;19.00;18.33;;;;;6.27;90.57;97636.00;5012660;28;45332;-79
2022/12/09 10:49:19;;;;;;;;;27.67;22.00;;;;;6.33;90.97;97642.75;5012161;28;45449;-79
2022/12/09 10:51:50;;;;;;;;;25.33;22.67;;;;;6.35;90.58;97634.81;5041579;28;45421;-79
2022/12/09 10:54:36;;;;;;;;;26.33;21.00;;;;;6.38;90.86;97639.88;5008028;28;45489;-79
2022/12/09 10:57:21;;;;;;;;;21.33;19.00;;;;;6.39;90.67;97639.81;5011240;28;46198;-80
2022/12/09 11:00:22;;;;;;;;;24.00;19.33;;;;;6.39;90.59;97644.19;5002829;28;45398;-78
2022/12/09 11:02:52;;;;;;;;;27.33;23.33;;;;;6.40;90.81;97640.66;5008264;28;45402;-79
2022/12/09 11:05:20;;;;;;;;;20.33;19.33;;;;;6.41;90.55;97637.13;5006685;28;45399;-79
2022/12/09 11:07:48;;;;;;;;;20.33;17.00;;;;;6.40;90.50;97638.88;5004159;28;45722;-79
2022/12/09 11:10:23;;;;;;;;;20.67;19.67;;;;;6.40;90.88;97640.66;5007452;28;45436;-79
2022/12/09 11:12:52;;;;;;;;;21.33;20.67;;;;;6.42;90.81;97634.44;5000560;28;45496;-79
2022/12/09 11:15:52;;;;;;;;;33.33;29.00;;;;;6.44;91.17;97639.59;5006188;28;45399;-77
2022/12/09 11:18:23;;;;;;;;;25.50;24.50;;;;;6.47;90.65;97637.69;5001854;28;45396;-78
2022/12/09 11:20:59;;;;;;;;;26.67;25.67;;;;;6.49;90.87;97633.25;4995790;28;45303;-77
2022/12/09 11:23:25;;;;;;;;;21.00;20.00;;;;;6.53;90.74;97628.72;5002968;28;45504;-77
2022/12/09 11:25:51;;;;;;;;;27.67;23.33;;;;;6.56;90.53;97623.31;5003197;28;45539;-78
2022/12/09 11:28:17;;;;;;;;;28.00;24.33;;;;;6.59;90.44;97624.00;5001235;28;45556;-78
2022/12/09 11:30:58;;;;;;;;;23.00;21.67;;;;;6.61;89.99;97616.94;5016865;28;45430;-78
2022/12/09 11:33:28;;;;;;;;;23.33;21.33;;;;;6.65;90.19;97615.88;4999988;28;45454;-77
2022/12/09 11:35:56;;;;;;;;;28.00;23.00;;;;;6.70;90.21;97610.41;5001858;28;45587;-78